Time;durP1;ratioP1;P1;durP2;ratioP2;P2;SDS_P1;SDS_P2;PMS_P1;PMS_P2;Temp;Humidity;BMP_temperature;BMP_pressure;BME280_temperature;BME280_humidity;BME280_pressure;Samples;Min_cycle;Max_cycle;Signal;HPM_P1;HPM_P2
2024/02/24 00:00:47;;;;;;;16.20;2.20;;;;;;;;;;4995107;28;20363;-76
2024/02/24 00:03:14;;;;;;;10.45;1.83;;;;;;;;;;4994011;28;20056;-76
2024/02/24 00:05:40;;;;;;;10.60;1.05;;;;;;;;;;4993704;28;20048;-76
2024/02/24 00:08:07;;;;;;;13.68;1.90;;;;;;;;;;4992797;28;20042;-76
2024/02/24 00:10:34;;;;;;;7.15;1.65;;;;;;;;;;4993003;28;20073;-76
2024/02/24 00:13:01;;;;;;;10.50;1.05;;;;;;;;;;4993256;28;20046;-76
2024/02/24 00:15:27;;;;;;;10.13;1.25;;;;;;;;;;4992646;28;20050;-76
2024/02/24 00:17:54;;;;;;;11.23;2.00;;;;;;;;;;4975855;28;20042;-76
2024/02/24 00:20:21;;;;;;;10.40;1.25;;;;;;;;;;4991357;28;20406;-76
2024/02/24 00:22:48;;;;;;;10.15;1.00;;;;;;;;;;4992369;28;20056;-76
2024/02/24 00:25:15;;;;;;;8.23;1.42;;;;;;;;;;4992144;28;20045;-75
2024/02/24 00:27:41;;;;;;;6.18;0.93;;;;;;;;;;4992686;28;20061;-76
2024/02/24 00:30:08;;;;;;;8.57;1.02;;;;;;;;;;4992259;28;20046;-76
2024/02/24 00:32:36;;;;;;;10.18;1.17;;;;;;;;;;4992662;28;20473;-76
2024/02/24 00:35:04;;;;;;;8.55;1.00;;;;;;;;;;4992982;28;20046;-76
2024/02/24 00:37:31;;;;;;;9.98;1.15;;;;;;;;;;4993228;28;20537;-76
2024/02/24 00:39:58;;;;;;;8.20;1.45;;;;;;;;;;4994312;28;20050;-76
2024/02/24 00:42:25;;;;;;;5.55;0.98;;;;;;;;;;4994041;28;20053;-76
2024/02/24 00:44:51;;;;;;;6.50;1.50;;;;;;;;;;4994281;28;20045;-76
2024/02/24 00:47:18;;;;;;;5.45;1.10;;;;;;;;;;4993658;28;20069;-75
2024/02/24 00:49:45;;;;;;;8.18;1.30;;;;;;;;;;4994090;28;20497;-76
2024/02/24 00:52:11;;;;;;;6.93;1.38;;;;;;;;;;4993746;28;20042;-76
2024/02/24 00:54:38;;;;;;;8.98;1.40;;;;;;;;;;4994172;28;20385;-75
2024/02/24 00:57:05;;;;;;;14.95;1.75;;;;;;;;;;4993519;28;20100;-76
2024/02/24 00:59:31;;;;;;;9.70;1.10;;;;;;;;;;4993871;28;20053;-76
2024/02/24 01:01:58;;;;;;;9.30;1.88;;;;;;;;;;4993990;28;20118;-75
2024/02/24 01:04:25;;;;;;;11.95;1.60;;;;;;;;;;4993255;28;20485;-75
2024/02/24 01:06:52;;;;;;;13.82;1.50;;;;;;;;;;4993921;28;20039;-76
2024/02/24 01:09:20;;;;;;;16.80;2.80;;;;;;;;;;4993219;28;20057;-76
2024/02/24 01:11:46;;;;;;;10.60;1.50;;;;;;;;;;4993836;28;20046;-76
2024/02/24 01:14:13;;;;;;;9.50;1.40;;;;;;;;;;4993208;28;20046;-76
2024/02/24 01:16:41;;;;;;;8.05;1.45;;;;;;;;;;4993724;28;20068;-76
2024/02/24 01:19:08;;;;;;;8.00;1.58;;;;;;;;;;4993260;28;20042;-76
2024/02/24 01:21:40;;;;;;;16.52;2.28;;;;;;;;;;4993670;28;20053;-75
2024/02/24 01:24:06;;;;;;;12.02;2.53;;;;;;;;;;4993343;28;20050;-76
2024/02/24 01:26:33;;;;;;;21.13;2.30;;;;;;;;;;4993484;28;20042;-75
2024/02/24 01:29:00;;;;;;;13.52;2.10;;;;;;;;;;4993683;28;20046;-76
2024/02/24 01:31:27;;;;;;;16.95;2.53;;;;;;;;;;4993204;28;20421;-76
2024/02/24 01:33:53;;;;;;;12.40;2.20;;;;;;;;;;4993574;28;20474;-76
2024/02/24 01:36:20;;;;;;;18.48;2.28;;;;;;;;;;4993059;28;20043;-76
2024/02/24 01:38:47;;;;;;;13.32;1.90;;;;;;;;;;4993400;28;20481;-75
2024/02/24 01:41:14;;;;;;;12.30;1.65;;;;;;;;;;4992744;28;20121;-76
2024/02/24 01:43:40;;;;;;;9.80;1.60;;;;;;;;;;4992338;28;20046;-76
2024/02/24 01:46:08;;;;;;;18.50;1.38;;;;;;;;;;4992832;28;20051;-75
2024/02/24 01:48:35;;;;;;;14.90;1.88;;;;;;;;;;4994275;28;20129;-75
2024/02/24 01:51:02;;;;;;;10.98;1.60;;;;;;;;;;4997515;28;20050;-76
2024/02/24 01:53:30;;;;;;;13.88;1.73;;;;;;;;;;4997238;28;20053;-76
2024/02/24 01:55:59;;;;;;;15.75;3.38;;;;;;;;;;4997535;28;20393;-76
2024/02/24 01:58:28;;;;;;;14.70;2.13;;;;;;;;;;4996752;28;20057;-76
2024/02/24 02:00:55;;;;;;;10.32;2.33;;;;;;;;;;4997251;28;20045;-76
2024/02/24 02:03:22;;;;;;;13.82;1.80;;;;;;;;;;4996853;28;20068;-76
2024/02/24 02:05:49;;;;;;;11.00;1.92;;;;;;;;;;4997248;28;20046;-75
2024/02/24 02:08:16;;;;;;;10.88;1.98;;;;;;;;;;4996707;28;20053;-76
2024/02/24 02:10:47;;;;;;;14.23;1.98;;;;;;;;;;4996849;28;20477;-76
2024/02/24 02:13:14;;;;;;;14.82;2.15;;;;;;;;;;4996645;28;20049;-75
2024/02/24 02:15:41;;;;;;;9.32;1.75;;;;;;;;;;4997206;28;20065;-77
2024/02/24 02:18:08;;;;;;;15.93;1.52;;;;;;;;;;4996603;28;20043;-76
2024/02/24 02:20:35;;;;;;;9.57;1.50;;;;;;;;;;4996933;28;20043;-76
2024/02/24 02:23:02;;;;;;;6.38;1.40;;;;;;;;;;4996857;28;20061;-76
2024/02/24 02:25:29;;;;;;;10.77;2.25;;;;;;;;;;4996517;28;20054;-75
2024/02/24 02:27:56;;;;;;;10.32;1.85;;;;;;;;;;4996908;28;20049;-76
2024/02/24 02:30:23;;;;;;;12.90;2.05;;;;;;;;;;4996382;28;20138;-76
2024/02/24 02:32:50;;;;;;;11.27;2.10;;;;;;;;;;4996712;28;20050;-76
2024/02/24 02:35:17;;;;;;;17.83;2.47;;;;;;;;;;4996404;28;20038;-76
2024/02/24 02:37:44;;;;;;;10.25;1.80;;;;;;;;;;4996720;28;20429;-76
2024/02/24 02:40:11;;;;;;;16.95;2.92;;;;;;;;;;4994772;28;20492;-76
2024/02/24 02:42:37;;;;;;;15.75;2.60;;;;;;;;;;4996659;28;20042;-76
2024/02/24 02:45:05;;;;;;;16.58;2.28;;;;;;;;;;4995991;28;20397;-75
2024/02/24 02:47:31;;;;;;;18.73;3.42;;;;;;;;;;4996456;28;20413;-75
2024/02/24 02:49:58;;;;;;;17.25;2.33;;;;;;;;;;4996417;28;20057;-76
2024/02/24 02:52:25;;;;;;;19.67;3.10;;;;;;;;;;4995816;28;20613;-76
2024/02/24 02:54:52;;;;;;;14.07;2.42;;;;;;;;;;4995171;28;20504;-76
2024/02/24 02:57:18;;;;;;;12.93;2.22;;;;;;;;;;4995838;28;20046;-76
2024/02/24 02:59:45;;;;;;;12.95;1.75;;;;;;;;;;4995623;28;20046;-76
2024/02/24 03:02:12;;;;;;;11.65;1.80;;;;;;;;;;4995336;28;20125;-76
2024/02/24 03:04:39;;;;;;;14.48;2.40;;;;;;;;;;4996220;28;20046;-75
2024/02/24 03:07:06;;;;;;;15.95;2.13;;;;;;;;;;4995683;28;20069;-76
2024/02/24 03:09:33;;;;;;;21.10;2.10;;;;;;;;;;4995879;28;20049;-76
2024/02/24 03:12:00;;;;;;;10.68;1.60;;;;;;;;;;4996102;28;20520;-75
2024/02/24 03:14:27;;;;;;;15.50;1.67;;;;;;;;;;4995516;28;20455;-76
2024/02/24 03:16:54;;;;;;;12.05;1.52;;;;;;;;;;4978699;28;20508;-76
2024/02/24 03:19:22;;;;;;;15.30;2.00;;;;;;;;;;4995435;28;20045;-76
2024/02/24 03:21:49;;;;;;;18.23;2.00;;;;;;;;;;4995803;28;20355;-76
2024/02/24 03:24:15;;;;;;;15.07;1.75;;;;;;;;;;4995399;28;20278;-76
2024/02/24 03:26:42;;;;;;;8.98;1.75;;;;;;;;;;4976451;28;20482;-75
2024/02/24 03:29:09;;;;;;;8.13;0.90;;;;;;;;;;4958748;28;20078;-76
2024/02/24 03:31:35;;;;;;;12.82;1.63;;;;;;;;;;4976387;28;20046;-76
2024/02/24 03:34:02;;;;;;;8.05;1.70;;;;;;;;;;4981862;28;20138;-76
2024/02/24 03:36:29;;;;;;;10.55;1.23;;;;;;;;;;4995467;28;20142;-75
2024/02/24 03:38:56;;;;;;;15.93;1.60;;;;;;;;;;4995603;28;20105;-76
2024/02/24 03:41:22;;;;;;;16.10;2.88;;;;;;;;;;4994890;28;20394;-76
2024/02/24 03:43:49;;;;;;;15.05;1.95;;;;;;;;;;4995445;28;20097;-75
2024/02/24 03:46:16;;;;;;;20.88;2.78;;;;;;;;;;4994891;28;20053;-76
2024/02/24 03:48:45;;;;;;;15.70;2.08;;;;;;;;;;4995436;28;20038;-76
2024/02/24 03:51:13;;;;;;;23.48;2.67;;;;;;;;;;4994758;28;20500;-76
2024/02/24 03:53:39;;;;;;;14.95;2.30;;;;;;;;;;4995258;28;20085;-76
2024/02/24 03:56:06;;;;;;;13.98;1.70;;;;;;;;;;4994769;28;20039;-76
2024/02/24 03:58:33;;;;;;;18.23;2.28;;;;;;;;;;4995043;28;20046;-75
2024/02/24 04:01:00;;;;;;;17.17;2.40;;;;;;;;;;4995159;28;20134;-76
2024/02/24 04:03:27;;;;;;;19.02;2.60;;;;;;;;;;4994607;28;20105;-76
2024/02/24 04:05:54;;;;;;;23.02;3.03;;;;;;;;;;4995130;28;20053;-76
2024/02/24 04:08:21;;;;;;;16.90;2.53;;;;;;;;;;4994448;28;20485;-76
2024/02/24 04:10:48;;;;;;;15.15;2.28;;;;;;;;;;4994677;28;20490;-76
2024/02/24 04:13:15;;;;;;;14.20;2.20;;;;;;;;;;4994426;28;20046;-76
2024/02/24 04:15:50;;;;;;;13.18;2.22;;;;;;;;;;4995091;28;20046;-76
2024/02/24 04:18:17;;;;;;;18.08;2.47;;;;;;;;;;4994283;28;20478;-76
2024/02/24 04:20:44;;;;;;;19.65;2.72;;;;;;;;;;4994784;28;20050;-76
2024/02/24 04:23:12;;;;;;;19.08;2.30;;;;;;;;;;4994259;28;20129;-76
2024/02/24 04:25:39;;;;;;;20.58;2.15;;;;;;;;;;4994598;28;20384;-75
2024/02/24 04:28:06;;;;;;;24.55;2.35;;;;;;;;;;4994254;28;20436;-76
2024/02/24 04:30:32;;;;;;;26.98;3.05;;;;;;;;;;4994721;28;20064;-76
2024/02/24 04:32:59;;;;;;;27.40;3.63;;;;;;;;;;4994517;28;20050;-75
2024/02/24 04:35:26;;;;;;;20.15;3.42;;;;;;;;;;4992909;28;20046;-76
2024/02/24 04:37:53;;;;;;;29.48;3.53;;;;;;;;;;4994676;28;20053;-76
2024/02/24 04:40:20;;;;;;;44.58;3.97;;;;;;;;;;4993758;28;20053;-76
2024/02/24 04:42:47;;;;;;;25.20;2.90;;;;;;;;;;4994344;28;20049;-76
2024/02/24 04:45:13;;;;;;;22.35;2.67;;;;;;;;;;4993834;28;20057;-75
2024/02/24 04:47:40;;;;;;;24.20;3.42;;;;;;;;;;4994240;28;20594;-76
2024/02/24 04:50:07;;;;;;;23.98;2.85;;;;;;;;;;4993880;28;20046;-76
2024/02/24 04:52:34;;;;;;;23.80;3.22;;;;;;;;;;4994402;28;20038;-76
2024/02/24 04:55:01;;;;;;;27.63;4.07;;;;;;;;;;4994235;28;20042;-75
2024/02/24 04:57:28;;;;;;;31.23;3.55;;;;;;;;;;4993612;28;20489;-76
2024/02/24 04:59:55;;;;;;;24.90;3.85;;;;;;;;;;4994182;28;20035;-76
2024/02/24 05:02:22;;;;;;;29.92;4.45;;;;;;;;;;4993397;28;20039;-76
2024/02/24 05:04:49;;;;;;;34.20;4.53;;;;;;;;;;4994024;28;20042;-76
2024/02/24 05:07:16;;;;;;;32.47;4.20;;;;;;;;;;4992411;28;20042;-76
2024/02/24 05:09:42;;;;;;;16.65;3.08;;;;;;;;;;4992622;28;20057;-75
2024/02/24 05:12:09;;;;;;;32.67;4.07;;;;;;;;;;4993283;28;20066;-76
2024/02/24 05:14:37;;;;;;;23.42;3.10;;;;;;;;;;4993992;28;20050;-76
2024/02/24 05:17:07;;;;;;;35.28;4.28;;;;;;;;;;4993410;28;20053;-76
2024/02/24 05:19:34;;;;;;;22.25;3.35;;;;;;;;;;4993855;28;20462;-76
2024/02/24 05:22:01;;;;;;;23.95;2.78;;;;;;;;;;4993769;28;20209;-76
2024/02/24 05:24:28;;;;;;;23.67;3.85;;;;;;;;;;4992624;28;20100;-76
2024/02/24 05:26:55;;;;;;;18.23;3.83;;;;;;;;;;4993632;28;20508;-76
2024/02/24 05:29:21;;;;;;;26.90;3.30;;;;;;;;;;4993265;28;20042;-76
2024/02/24 05:31:48;;;;;;;30.77;3.78;;;;;;;;;;4993680;28;20137;-75
2024/02/24 05:34:15;;;;;;;28.40;3.85;;;;;;;;;;4992995;28;20042;-76
2024/02/24 05:36:42;;;;;;;30.05;3.30;;;;;;;;;;4993675;28;20088;-76
2024/02/24 05:39:09;;;;;;;20.00;3.00;;;;;;;;;;4993121;28;20050;-76
2024/02/24 05:41:36;;;;;;;22.58;3.85;;;;;;;;;;4993364;28;20374;-76
2024/02/24 05:44:03;;;;;;;16.35;3.20;;;;;;;;;;4993496;28;20386;-75
2024/02/24 05:46:30;;;;;;;32.22;4.07;;;;;;;;;;4993187;28;20061;-76
2024/02/24 05:48:56;;;;;;;24.25;3.70;;;;;;;;;;4993495;28;20501;-75
2024/02/24 05:51:24;;;;;;;30.08;3.92;;;;;;;;;;4992894;28;20043;-76
2024/02/24 05:53:51;;;;;;;24.57;2.97;;;;;;;;;;4993558;28;20042;-76
2024/02/24 05:56:18;;;;;;;34.55;4.18;;;;;;;;;;4992782;28;20069;-76
2024/02/24 05:58:45;;;;;;;26.05;3.58;;;;;;;;;;4992257;28;20429;-76
2024/02/24 06:01:13;;;;;;;38.33;4.32;;;;;;;;;;4992829;28;20469;-76
2024/02/24 06:03:40;;;;;;;27.92;4.28;;;;;;;;;;4993261;28;20125;-76
2024/02/24 06:06:07;;;;;;;36.60;5.88;;;;;;;;;;4992994;28;20043;-76
2024/02/24 06:08:35;;;;;;;42.00;5.40;;;;;;;;;;4993145;28;20050;-76
2024/02/24 06:11:01;;;;;;;47.28;6.43;;;;;;;;;;4992990;28;20047;-76
2024/02/24 06:13:28;;;;;;;44.83;6.60;;;;;;;;;;4992928;28;20056;-75
2024/02/24 06:15:56;;;;;;;47.78;6.72;;;;;;;;;;4993138;28;20046;-76
2024/02/24 06:18:23;;;;;;;38.20;5.25;;;;;;;;;;4992967;28;20446;-76
2024/02/24 06:20:52;;;;;;;51.80;6.07;;;;;;;;;;4993109;28;20089;-76
2024/02/24 06:23:19;;;;;;;;;;;;;;;;;;4993201;28;20109;-75
2024/02/24 06:25:46;;;;;;;42.42;4.75;;;;;;;;;;4992888;28;19964;-76
2024/02/24 06:28:12;;;;;;;40.33;5.47;;;;;;;;;;4975494;28;20046;-76
2024/02/24 06:30:39;;;;;;;35.03;5.47;;;;;;;;;;4993090;28;20061;-76
2024/02/24 06:33:07;;;;;;;34.70;5.90;;;;;;;;;;4992527;28;20043;-76
2024/02/24 06:35:34;;;;;;;31.88;4.55;;;;;;;;;;4995267;28;20049;-76
2024/02/24 06:38:01;;;;;;;35.42;5.22;;;;;;;;;;4996775;28;20130;-76
2024/02/24 06:40:28;;;;;;;21.90;4.13;;;;;;;;;;4996251;28;20418;-76
2024/02/24 06:43:10;;;;;;;29.58;4.70;;;;;;;;;;4996010;28;20043;-76
2024/02/24 06:45:37;;;;;;;24.33;3.42;;;;;;;;;;4995519;28;20054;-76
2024/02/24 06:48:04;;;;;;;25.08;3.47;;;;;;;;;;4995099;28;20049;-76
2024/02/24 06:50:31;;;;;;;18.38;4.97;;;;;;;;;;4995383;28;20101;-76
2024/02/24 06:52:58;;;;;;;10.82;2.10;;;;;;;;;;4995285;28;20034;-76
2024/02/24 06:55:24;;;;;;;12.95;1.67;;;;;;;;;;4995796;28;20474;-76
2024/02/24 06:57:51;;;;;;;7.30;1.08;;;;;;;;;;4996234;28;20125;-76
2024/02/24 07:00:18;;;;;;;6.05;1.25;;;;;;;;;;4995317;28;20474;-75
2024/02/24 07:02:46;;;;;;;7.80;1.50;;;;;;;;;;4995754;28;20043;-75
2024/02/24 07:05:13;;;;;;;11.50;1.35;;;;;;;;;;4995556;28;20137;-76
2024/02/24 07:07:39;;;;;;;10.75;1.25;;;;;;;;;;4996009;28;20086;-76
2024/02/24 07:10:08;;;;;;;8.63;1.08;;;;;;;;;;4995279;28;20054;-75
2024/02/24 07:12:35;;;;;;;5.95;0.88;;;;;;;;;;4995955;28;20046;-80
2024/02/24 07:15:07;;;;;;;7.07;1.33;;;;;;;;;;4994317;28;20129;-77
2024/02/24 07:17:34;;;;;;;6.47;0.80;;;;;;;;;;4995527;28;20054;-76
2024/02/24 07:20:01;;;;;;;5.32;1.25;;;;;;;;;;4990935;28;20121;-76
2024/02/24 07:22:28;;;;;;;12.75;1.88;;;;;;;;;;4993511;28;20389;-75
2024/02/24 07:24:54;;;;;;;8.88;1.45;;;;;;;;;;4994187;28;20050;-76
2024/02/24 07:27:21;;;;;;;10.82;1.30;;;;;;;;;;4993741;28;20053;-76
2024/02/24 07:29:48;;;;;;;11.75;1.88;;;;;;;;;;4996505;28;20047;-76
2024/02/24 07:32:15;;;;;;;8.43;2.00;;;;;;;;;;4988882;28;20042;-76
2024/02/24 07:34:42;;;;;;;17.08;3.03;;;;;;;;;;4993955;28;20124;-76
2024/02/24 07:37:08;;;;;;;11.30;1.85;;;;;;;;;;4993286;28;20478;-75
2024/02/24 07:39:36;;;;;;;12.38;2.13;;;;;;;;;;4993954;28;20077;-76
2024/02/24 07:42:03;;;;;;;15.90;1.98;;;;;;;;;;4993543;28;20532;-76
2024/02/24 07:44:29;;;;;;;17.00;2.08;;;;;;;;;;4992655;28;20565;-76
2024/02/24 07:46:56;;;;;;;29.38;3.72;;;;;;;;;;4992983;28;20058;-76
2024/02/24 07:49:23;;;;;;;22.70;2.88;;;;;;;;;;4992774;28;20038;-77
2024/02/24 07:51:51;;;;;;;23.13;2.80;;;;;;;;;;4989424;28;20073;-76
2024/02/24 07:54:17;;;;;;;18.65;2.35;;;;;;;;;;4991875;28;20050;-75
2024/02/24 07:56:45;;;;;;;25.42;2.35;;;;;;;;;;4991636;28;20058;-76
2024/02/24 07:59:12;;;;;;;16.45;2.75;;;;;;;;;;4982562;28;20466;-77
2024/02/24 08:01:39;;;;;;;22.92;2.20;;;;;;;;;;4988703;28;20053;-75
2024/02/24 08:04:06;;;;;;;18.25;2.50;;;;;;;;;;4993063;28;20053;-76
2024/02/24 08:06:33;;;;;;;13.10;1.73;;;;;;;;;;4986291;28;20073;-77
2024/02/24 08:09:00;;;;;;;17.40;2.13;;;;;;;;;;4993328;28;20050;-76
2024/02/24 08:11:36;;;;;;;15.85;1.70;;;;;;;;;;4992832;28;20077;-77
2024/02/24 08:14:03;;;;;;;12.32;1.85;;;;;;;;;;4992719;28;20042;-76
2024/02/24 08:16:29;;;;;;;13.50;2.03;;;;;;;;;;4992800;28;20046;-76
2024/02/24 08:18:56;;;;;;;11.25;1.85;;;;;;;;;;4993385;28;20034;-76
2024/02/24 08:21:23;;;;;;;8.90;1.42;;;;;;;;;;4991882;28;20042;-76
2024/02/24 08:23:50;;;;;;;12.13;1.90;;;;;;;;;;4993299;28;20050;-76
2024/02/24 08:26:16;;;;;;;7.60;1.40;;;;;;;;;;4986091;28;20043;-76
2024/02/24 08:28:43;;;;;;;6.95;1.10;;;;;;;;;;4980238;28;20074;-75
2024/02/24 08:31:10;;;;;;;14.57;1.80;;;;;;;;;;4986923;28;20370;-76
2024/02/24 08:33:41;;;;;;;9.55;1.80;;;;;;;;;;4993143;28;20057;-76
2024/02/24 08:36:07;;;;;;;21.50;1.83;;;;;;;;;;4992459;28;20107;-76
2024/02/24 08:38:35;;;;;;;8.27;1.77;;;;;;;;;;4988238;28;20046;-76
2024/02/24 08:41:05;;;;;;;9.95;1.48;;;;;;;;;;4992212;28;20058;-76
2024/02/24 08:43:32;;;;;;;9.93;1.52;;;;;;;;;;4992707;28;20042;-77
2024/02/24 08:45:58;;;;;;;6.65;1.52;;;;;;;;;;4992848;28;20390;-76
2024/02/24 08:48:26;;;;;;;11.20;1.23;;;;;;;;;;4990298;28;20046;-76
2024/02/24 08:50:53;;;;;;;12.85;1.92;;;;;;;;;;4992561;28;20124;-77
2024/02/24 08:53:20;;;;;;;23.67;6.85;;;;;;;;;;4991452;28;20101;-76
2024/02/24 08:55:47;;;;;;;23.50;6.55;;;;;;;;;;4986370;28;20058;-76
2024/02/24 08:58:14;;;;;;;10.15;2.42;;;;;;;;;;4986329;28;20058;-77
2024/02/24 09:00:40;;;;;;;4.38;0.70;;;;;;;;;;4994439;28;20058;-76
2024/02/24 09:03:07;;;;;;;3.92;0.75;;;;;;;;;;4988772;28;20413;-76
2024/02/24 09:05:35;;;;;;;5.93;1.20;;;;;;;;;;4988482;28;20382;-76
2024/02/24 09:08:04;;;;;;;5.30;0.90;;;;;;;;;;4986517;28;20042;-76
2024/02/24 09:10:30;;;;;;;13.55;3.92;;;;;;;;;;4989053;28;20488;-76
2024/02/24 09:12:57;;;;;;;6.47;1.25;;;;;;;;;;4981314;28;20163;-76
2024/02/24 09:15:24;;;;;;;8.43;0.95;;;;;;;;;;4984364;28;20042;-77
2024/02/24 09:17:50;;;;;;;7.43;1.10;;;;;;;;;;4965236;28;20050;-76
2024/02/24 09:20:17;;;;;;;7.72;1.13;;;;;;;;;;4990145;28;20397;-82
2024/02/24 09:22:44;;;;;;;8.50;1.40;;;;;;;;;;4972856;28;20561;-77
2024/02/24 09:25:15;;;;;;;7.50;1.20;;;;;;;;;;4991017;28;20049;-81
2024/02/24 09:27:43;;;;;;;14.68;2.33;;;;;;;;;;4974793;28;20347;-76
2024/02/24 09:30:10;;;;;;;19.95;2.20;;;;;;;;;;4989456;28;20478;-76
2024/02/24 09:32:37;;;;;;;14.18;2.30;;;;;;;;;;4989915;28;20058;-77
2024/02/24 09:35:05;;;;;;;16.75;2.45;;;;;;;;;;4990505;28;20046;-76
2024/02/24 09:37:32;;;;;;;11.57;2.30;;;;;;;;;;4985568;28;20042;-77
2024/02/24 09:40:01;;;;;;;12.57;2.15;;;;;;;;;;4991763;28;20069;-77
2024/02/24 09:42:30;;;;;;;18.52;3.03;;;;;;;;;;4991406;28;20042;-76
2024/02/24 09:44:59;;;;;;;19.52;2.42;;;;;;;;;;4991797;28;20108;-79
2024/02/24 09:47:26;;;;;;;15.13;2.20;;;;;;;;;;4990254;28;20057;-80
2024/02/24 09:49:53;;;;;;;22.92;2.90;;;;;;;;;;4973364;28;20143;-77
2024/02/24 09:52:20;;;;;;;15.82;3.50;;;;;;;;;;4991041;28;20054;-78
2024/02/24 09:54:47;;;;;;;17.52;2.60;;;;;;;;;;4983766;28;20569;-79
2024/02/24 09:57:19;;;;;;;6.97;1.45;;;;;;;;;;4983632;28;20500;-77
2024/02/24 09:59:48;;;;;;;11.27;1.40;;;;;;;;;;4989647;28;20050;-78
2024/02/24 10:02:15;;;;;;;8.60;1.35;;;;;;;;;;4987002;28;20042;-76
2024/02/24 10:04:42;;;;;;;6.18;1.40;;;;;;;;;;4991713;28;20046;-78
2024/02/24 10:07:09;;;;;;;9.38;1.63;;;;;;;;;;4978907;28;20407;-78
2024/02/24 10:09:36;;;;;;;9.63;1.63;;;;;;;;;;4982031;28;20054;-78
2024/02/24 10:12:03;;;;;;;12.68;2.03;;;;;;;;;;4989448;28;20535;-77
2024/02/24 10:14:32;;;;;;;16.52;2.10;;;;;;;;;;4993875;28;20477;-77
2024/02/24 10:17:00;;;;;;;9.82;2.38;;;;;;;;;;4994063;28;20116;-77
2024/02/24 10:19:33;;;;;;;11.57;1.70;;;;;;;;;;4994362;28;20085;-78
2024/02/24 10:22:06;;;;;;;19.73;3.05;;;;;;;;;;4988493;28;20061;-78
2024/02/24 10:24:33;;;;;;;15.45;1.85;;;;;;;;;;4990367;28;20050;-77
2024/02/24 10:27:01;;;;;;;12.35;2.30;;;;;;;;;;4994043;28;20125;-77
2024/02/24 10:29:31;;;;;;;14.68;1.98;;;;;;;;;;4994584;28;20046;-77
2024/02/24 10:31:59;;;;;;;13.38;1.67;;;;;;;;;;4992672;28;20046;-77
2024/02/24 10:34:27;;;;;;;15.63;1.75;;;;;;;;;;4993989;28;20054;-77
2024/02/24 10:36:57;;;;;;;9.63;1.77;;;;;;;;;;4994679;28;20039;-83
2024/02/24 10:39:26;;;;;;;14.70;2.60;;;;;;;;;;4976731;28;20061;-85
2024/02/24 10:41:53;;;;;;;12.93;1.77;;;;;;;;;;4958333;28;20089;-77
2024/02/24 10:44:21;;;;;;;14.48;2.25;;;;;;;;;;4992616;28;20544;-78
2024/02/24 10:46:49;;;;;;;13.45;3.70;;;;;;;;;;4993400;28;20057;-78
2024/02/24 10:49:16;;;;;;;14.60;3.55;;;;;;;;;;4991696;28;20075;-78
2024/02/24 10:51:48;;;;;;;9.77;2.20;;;;;;;;;;4994191;28;20097;-78
2024/02/24 10:54:22;;;;;;;6.45;2.08;;;;;;;;;;4994034;28;20046;-78
2024/02/24 10:56:56;;;;;;;13.20;2.33;;;;;;;;;;4994774;28;20169;-77
2024/02/24 10:59:28;;;;;;;18.50;1.88;;;;;;;;;;4987892;28;23285;-77
2024/02/24 11:02:02;;;;;;;9.80;1.45;;;;;;;;;;4987559;28;20043;-83
2024/02/24 11:04:34;;;;;;;5.22;0.80;;;;;;;;;;4976724;28;20481;-81
2024/02/24 11:07:05;;;;;;;5.25;1.30;;;;;;;;;;4993163;28;20074;-82
2024/02/24 11:09:39;;;;;;;8.02;1.42;;;;;;;;;;4988238;28;20134;-77
2024/02/24 11:12:13;;;;;;;8.88;1.30;;;;;;;;;;4975139;28;20047;-77
2024/02/24 11:14:42;;;;;;;12.77;2.20;;;;;;;;;;4973377;28;20134;-77
2024/02/24 11:17:10;;;;;;;12.50;2.47;;;;;;;;;;4959919;28;20043;-77
2024/02/24 11:19:47;;;;;;;13.80;1.40;;;;;;;;;;4960377;28;20047;-77
2024/02/24 11:22:19;;;;;;;15.80;2.35;;;;;;;;;;4973893;28;20506;-78
2024/02/24 11:25:00;;;;;;;17.15;2.17;;;;;;;;;;4972616;28;20054;-86
2024/02/24 11:27:31;;;;;;;16.52;2.30;;;;;;;;;;4964300;28;20054;-77
2024/02/24 11:29:58;;;;;;;20.02;4.65;;;;;;;;;;4961099;28;20430;-77
2024/02/24 11:32:25;;;;;;;28.20;4.95;;;;;;;;;;4964415;28;20259;-78
2024/02/24 11:34:55;;;;;;;18.30;3.45;;;;;;;;;;4964123;28;20129;-77
2024/02/24 11:37:22;;;;;;;19.63;4.07;;;;;;;;;;4968733;28;20078;-77
2024/02/24 11:39:49;;;;;;;19.27;2.30;;;;;;;;;;4968517;28;20071;-77
2024/02/24 11:42:17;;;;;;;18.35;2.83;;;;;;;;;;4971661;28;20049;-77
2024/02/24 11:44:45;;;;;;;8.90;1.73;;;;;;;;;;4971987;28;20046;-77
2024/02/24 11:47:17;;;;;;;14.65;2.10;;;;;;;;;;4971399;28;20445;-77
2024/02/24 11:49:47;;;;;;;8.30;1.23;;;;;;;;;;4969627;28;20050;-78
2024/02/24 11:52:17;;;;;;;13.27;2.15;;;;;;;;;;4967405;28;20556;-83
2024/02/24 11:54:45;;;;;;;9.82;1.33;;;;;;;;;;4961212;28;20070;-82
2024/02/24 11:57:12;;;;;;;11.63;1.77;;;;;;;;;;4969037;28;20046;-83
2024/02/24 11:59:40;;;;;;;15.60;2.27;;;;;;;;;;4968732;28;20043;-77
2024/02/24 12:02:07;;;;;;;11.70;2.22;;;;;;;;;;4958269;28;20153;-77
2024/02/24 12:04:34;;;;;;;10.13;1.55;;;;;;;;;;4972769;28;20129;-77
2024/02/24 12:07:04;;;;;;;14.95;2.17;;;;;;;;;;4972701;28;20050;-77
2024/02/24 12:09:31;;;;;;;10.10;1.55;;;;;;;;;;4970924;28;20116;-77
2024/02/24 12:11:58;;;;;;;12.10;2.38;;;;;;;;;;4972337;28;20055;-79
2024/02/24 12:14:29;;;;;;;11.18;1.83;;;;;;;;;;4969500;28;20046;-77
2024/02/24 12:16:57;;;;;;;10.35;2.05;;;;;;;;;;4971985;28;20031;-76
2024/02/24 12:19:27;;;;;;;14.23;2.05;;;;;;;;;;4963656;28;20085;-77
2024/02/24 12:21:55;;;;;;;14.55;1.40;;;;;;;;;;4971491;28;20063;-77
2024/02/24 12:24:28;;;;;;;15.98;1.73;;;;;;;;;;4977814;28;20121;-76
2024/02/24 12:27:03;;;;;;;15.30;2.28;;;;;;;;;;4985895;28;20039;-77
2024/02/24 12:29:30;;;;;;;20.30;2.60;;;;;;;;;;4960838;28;20035;-76
2024/02/24 12:31:57;;;;;;;23.08;3.17;;;;;;;;;;4981874;28;20070;-77
2024/02/24 12:34:24;;;;;;;17.30;2.03;;;;;;;;;;4966981;28;20129;-77
2024/02/24 12:36:56;;;;;;;19.33;2.50;;;;;;;;;;4965955;28;20124;-76
2024/02/24 12:39:24;;;;;;;20.83;2.80;;;;;;;;;;4967451;28;20078;-77
2024/02/24 12:41:54;;;;;;;;;;;;;;;;;;4973591;28;20386;-77
2024/02/24 12:44:21;;;;;;;19.00;3.42;;;;;;;;;;4971336;28;19922;-77
2024/02/24 12:46:48;;;;;;;17.67;2.22;;;;;;;;;;4973457;28;20043;-77
2024/02/24 12:49:15;;;;;;;24.08;2.63;;;;;;;;;;4972404;28;20059;-76
2024/02/24 12:51:50;;;;;;;22.98;3.13;;;;;;;;;;4972751;28;20469;-77
2024/02/24 12:54:17;;;;;;;18.38;2.92;;;;;;;;;;4965091;28;20046;-77
2024/02/24 12:56:44;;;;;;;19.55;2.70;;;;;;;;;;4964574;28;20406;-78
2024/02/24 12:59:12;;;;;;;15.38;2.53;;;;;;;;;;4968644;28;20421;-78
2024/02/24 13:01:39;;;;;;;31.90;7.80;;;;;;;;;;4972968;28;20039;-77
2024/02/24 13:04:06;;;;;;;13.85;2.53;;;;;;;;;;4961240;28;20282;-84
2024/02/24 13:06:33;;;;;;;15.13;1.95;;;;;;;;;;4969357;28;20398;-77
2024/02/24 13:09:00;;;;;;;19.15;3.03;;;;;;;;;;4972671;28;20058;-77
2024/02/24 13:11:27;;;;;;;15.73;2.55;;;;;;;;;;4980644;28;20492;-77
2024/02/24 13:13:54;;;;;;;14.07;2.30;;;;;;;;;;4991037;28;20046;-77
2024/02/24 13:16:20;;;;;;;19.65;3.10;;;;;;;;;;4990077;28;20042;-77
2024/02/24 13:18:47;;;;;;;20.13;2.53;;;;;;;;;;4989465;28;20130;-77
2024/02/24 13:21:14;;;;;;;14.68;2.08;;;;;;;;;;4990004;28;20034;-77
2024/02/24 13:23:41;;;;;;;14.88;2.58;;;;;;;;;;4990562;28;20047;-77
2024/02/24 13:26:07;;;;;;;19.65;2.85;;;;;;;;;;4989603;28;20045;-77
2024/02/24 13:28:34;;;;;;;15.98;1.70;;;;;;;;;;4990076;28;20058;-77
2024/02/24 13:31:01;;;;;;;9.98;1.95;;;;;;;;;;4988763;28;20317;-77
2024/02/24 13:33:28;;;;;;;14.45;1.58;;;;;;;;;;4987558;28;20496;-77
2024/02/24 13:35:54;;;;;;;17.48;2.30;;;;;;;;;;4990072;28;20328;-77
2024/02/24 13:38:21;;;;;;;11.50;1.98;;;;;;;;;;4989955;28;20441;-77
2024/02/24 13:40:48;;;;;;;11.60;1.90;;;;;;;;;;4991499;28;20054;-77
2024/02/24 13:43:15;;;;;;;18.58;2.55;;;;;;;;;;4991592;28;20050;-77
2024/02/24 13:45:42;;;;;;;16.67;2.42;;;;;;;;;;4992564;28;20354;-77
2024/02/24 13:48:09;;;;;;;20.65;2.53;;;;;;;;;;4987157;28;20044;-77
2024/02/24 13:50:35;;;;;;;14.98;1.92;;;;;;;;;;4991599;28;20062;-76
2024/02/24 13:53:02;;;;;;;16.00;2.17;;;;;;;;;;4990785;28;20062;-77
2024/02/24 13:55:29;;;;;;;12.07;2.20;;;;;;;;;;4988859;28;20100;-76
2024/02/24 13:57:56;;;;;;;16.88;2.00;;;;;;;;;;4973225;28;20389;-76
2024/02/24 14:00:22;;;;;;;16.65;2.50;;;;;;;;;;4989444;28;20058;-77
2024/02/24 14:02:49;;;;;;;14.77;2.10;;;;;;;;;;4991770;28;20123;-77
2024/02/24 14:05:16;;;;;;;15.07;1.90;;;;;;;;;;4994004;28;20049;-77
2024/02/24 14:07:44;;;;;;;12.50;1.65;;;;;;;;;;5002017;28;20066;-77
2024/02/24 14:10:10;;;;;;;7.47;1.42;;;;;;;;;;4991117;28;20041;-76
2024/02/24 14:12:37;;;;;;;5.53;0.98;;;;;;;;;;4991768;28;20047;-76
2024/02/24 14:15:04;;;;;;;5.95;0.70;;;;;;;;;;4990017;28;20093;-77
2024/02/24 14:17:31;;;;;;;8.55;1.08;;;;;;;;;;4989168;28;20054;-85
2024/02/24 14:19:58;;;;;;;6.18;1.30;;;;;;;;;;4973809;28;20046;-77
2024/02/24 14:22:37;;;;;;;4.63;0.95;;;;;;;;;;4979748;28;20062;-77
2024/02/24 14:25:04;;;;;;;4.88;0.95;;;;;;;;;;4990469;28;20065;-76
2024/02/24 14:27:31;;;;;;;8.80;1.42;;;;;;;;;;4990007;28;20066;-76
2024/02/24 14:29:57;;;;;;;8.48;0.98;;;;;;;;;;4990335;28;20050;-77
2024/02/24 14:32:24;;;;;;;5.50;0.95;;;;;;;;;;4989731;28;20461;-76
2024/02/24 14:34:51;;;;;;;10.05;1.23;;;;;;;;;;4990465;28;20125;-77